Terminal Aerodrome Forecast
Issued by NWS Austin/San Antonio, TX

Current Version | Previous Version | Text Only | Print | Product List | Glossary Off
Versions: 1 2 3 4 5 6 7 8 9 10 11 12 13 14 15 16 17 18 19 20 21 22 23 24 25

000
FTUS44 KEWX 200500
TAFSAT
TAF
KSAT 200540Z 2006/2112 02011KT P6SM OVC016
     FM200800 01009KT P6SM OVC009
     FM201300 01008KT 5SM BR OVC005
     FM201700 05003KT 6SM BR OVC007
     FM202000 06003KT P6SM OVC020
     FM210600 VRB03KT 3SM BR OVC007=

USA.gov is the U.S. government's official web portal to all federal, state and local government web resources and services.